Colombo Express — DIHC — position and weather

sailwx.info

Track history (hours):
 
Tides and Currents Weather Stations Pressure Air Temp Water Temp Dewpoint Dewpoint Depression Visibility Wind Speed Wind Dir Waves Ship Positions

Colombo Express

Last reported at 2017-Sep-25 22:27 UTC. Time now 2017-Sep-26 05:54 UTC.
Position N 51°29' E 000°47'.

Length 335.5 m; beam 42.8 m; draft 14.6 m.

Type: Ship. MMSI: 211433000.

Date/timePositionNaut miles runAvg speedWind from/ knotsBaromVisibWave heightAir tempDewpointWater temp
2017-Sep-25 22:27N 51°29' E 000°47'5 9.3
2017-Sep-25 21:53N 51°29' E 000°56'411.5
2017-Sep-25 21:31N 51°30' E 001°02'5 9.6
2017-Sep-25 20:58N 51°33' E 001°10'4 9.8
2017-Sep-25 20:31N 51°35' E 001°16'612.4
2017-Sep-25 20:00N 51°39' E 001°24'714.9
2017-Sep-25 19:31N 51°45' E 001°31'713.8
2017-Sep-25 19:00N 51°51' E 001°36'3 6.8
2017-Sep-25 18:30N 51°52' E 001°41'5 9.3
2017-Sep-25 18:00N 51°50' E 001°48'612.3
2017-Sep-25 17:29N 51°43' E 001°49'611.6
2017-Sep-25 17:00N 51°38' E 001°50'1 1.7
2017-Sep-25 16:30N 51°37' E 001°49'1 1.7
2017-Sep-25 16:00N 51°36' E 001°49'1 1.3
2017-Sep-25 15:30N 51°35' E 001°50'0 0.7
2017-Sep-25 15:00N 51°35' E 001°50'0 0.4
2017-Sep-25 14:30N 51°35' E 001°50'0 0.5
2017-Sep-25 14:00N 51°35' E 001°50'1 2.9
2017-Sep-25 13:30N 51°34' E 001°50'4 7.2
2017-Sep-25 13:00N 51°31' E 001°53'4 7.8
2017-Sep-25 12:30N 51°28' E 001°57'5 9.5
2017-Sep-25 12:00N 51°25' E 002°03'4 8.8
2017-Sep-25 11:30N 51°23' E 002°09'611.1
2017-Sep-25 11:00N 51°21' E 002°17'5 9.2
2017-Sep-25 10:30N 51°22' E 002°24'4 9.0
2017-Sep-25 10:00N 51°23' E 002°31'4 8.6
2017-Sep-25 09:30N 51°23' E 002°38'5 9.2
2017-Sep-25 09:00N 51°24' E 002°45'714.8
2017-Sep-25 08:31N 51°25' E 002°57'917.2
2017-Sep-25 08:00N 51°24' E 003°11'918.6
2017-Sep-25 07:31N 51°25' E 003°26'714.1
2017-Sep-25 07:00N 51°26' E 003°37'611.6
2017-Sep-25 06:30N 51°22' E 003°44'713.7
2017-Sep-25 06:00N 51°22' E 003°55'611.1
2017-Sep-25 05:30N 51°26' E 004°02'510.8
2017-Sep-25 05:00N 51°22' E 004°08'4 7.1
2017-Sep-25 04:30N 51°21' E 004°14'1 2.2
2017-Sep-25 04:01N 51°21' E 004°16'0 0.0
2017-Sep-25 03:30N 51°21' E 004°16'0 0.0
2017-Sep-25 03:01N 51°21' E 004°16'0 0.0
2017-Sep-25 02:31N 51°21' E 004°16'0 0.0
2017-Sep-25 02:00N 51°21' E 004°16'0 0.0
2017-Sep-25 01:31N 51°21' E 004°16'0 0.0
2017-Sep-25 01:01N 51°21' E 004°16'0 0.0
2017-Sep-25 00:30N 51°21' E 004°16'0 0.0
2017-Sep-25 00:01N 51°21' E 004°16'0 0.0
2017-Sep-24 23:31N 51°21' E 004°16'0 0.0
2017-Sep-24 23:00N 51°21' E 004°16'0 0.0
2017-Sep-24 22:31N 51°21' E 004°16'0 0.0
2017-Sep-24 22:00N 51°21' E 004°16'0 0.0
2017-Sep-24 21:31N 51°21' E 004°16'0 0.0
2017-Sep-24 21:01N 51°21' E 004°16'0 0.0
2017-Sep-24 20:30N 51°21' E 004°16'0 0.0
2017-Sep-24 20:00N 51°21' E 004°16'0 0.0
2017-Sep-24 19:30N 51°21' E 004°16'0 0.0
2017-Sep-24 19:01N 51°21' E 004°16'0 0.0
2017-Sep-24 18:29N 51°21' E 004°16'0 0.0
2017-Sep-24 17:59N 51°21' E 004°16'0 0.0
2017-Sep-24 17:29N 51°21' E 004°16'0 0.0
2017-Sep-24 17:01N 51°21' E 004°16'0 0.0
2017-Sep-24 16:31N 51°21' E 004°16'0 0.0
2017-Sep-24 16:00N 51°21' E 004°16'0 0.0
2017-Sep-24 15:28N 51°21' E 004°16'0 0.0
2017-Sep-24 14:59N 51°21' E 004°16'0 0.0
2017-Sep-24 14:28N 51°21' E 004°16'0 0.0
2017-Sep-24 14:01N 51°21' E 004°16'0 0.0
2017-Sep-24 13:26N 51°21' E 004°16'0 0.0
2017-Sep-24 12:58N 51°21' E 004°16'0 0.0
2017-Sep-24 12:30N 51°21' E 004°16'0 0.0
2017-Sep-24 12:01N 51°21' E 004°16'0 0.0
2017-Sep-24 11:31N 51°21' E 004°16'0 0.0
2017-Sep-24 11:00N 51°21' E 004°16'0 0.0
2017-Sep-24 10:30N 51°21' E 004°16'0 0.0
2017-Sep-24 10:00N 51°21' E 004°16'0 0.0
2017-Sep-24 09:31N 51°21' E 004°16'0 0.0
2017-Sep-24 09:00N 51°21' E 004°16'0 0.0
2017-Sep-24 08:31N 51°21' E 004°16'0 0.0
2017-Sep-24 08:00N 51°21' E 004°16'0 0.0
2017-Sep-24 07:31N 51°21' E 004°16'0 0.0
2017-Sep-24 07:01N 51°21' E 004°16'0 0.0
2017-Sep-24 06:25N 51°21' E 004°16'0 0.0
2017-Sep-24 06:00N 51°21' E 004°16'0 0.0
2017-Sep-24 05:31N 51°21' E 004°16'0 0.0
2017-Sep-24 05:00N 51°21' E 004°16'0 0.0
2017-Sep-24 04:30N 51°21' E 004°16'0 0.0
2017-Sep-24 04:01N 51°21' E 004°16'0 0.0
2017-Sep-24 03:31N 51°21' E 004°16'0 0.0
2017-Sep-24 03:00N 51°21' E 004°16'0 0.0
2017-Sep-24 02:31N 51°21' E 004°16'0 0.0
2017-Sep-24 02:00N 51°21' E 004°16'0 0.0
2017-Sep-24 01:28N 51°21' E 004°16'0 0.0
2017-Sep-24 01:01N 51°21' E 004°16'0 0.0
2017-Sep-24 00:30N 51°21' E 004°16'0 0.0
2017-Sep-24 00:01N 51°21' E 004°16'0 0.0
2017-Sep-23 23:31N 51°21' E 004°16'0 0.0
2017-Sep-23 23:00N 51°21' E 004°16'0 0.0
2017-Sep-23 22:30N 51°21' E 004°16'0 0.0
2017-Sep-23 22:01N 51°21' E 004°16'0 0.0
2017-Sep-23 21:25N 51°21' E 004°16'0 0.0
2017-Sep-23 21:00N 51°21' E 004°16'0 0.0
2017-Sep-23 20:30N 51°21' E 004°16'0 0.0
2017-Sep-23 20:00N 51°21' E 004°16'245 5.8
2017-Sep-22 02:00N 53°30' E 009°56'0 0.0
2017-Sep-22 01:30N 53°30' E 009°56'0 0.0
2017-Sep-22 01:00N 53°30' E 009°56'0 0.0
2017-Sep-22 00:30N 53°30' E 009°56'0 0.0
2017-Sep-22 00:00N 53°30' E 009°56'0 0.0
2017-Sep-21 23:30N 53°30' E 009°56'0 0.0
2017-Sep-21 23:00N 53°30' E 009°56'0 0.0
2017-Sep-21 22:30N 53°30' E 009°56'0 0.0
2017-Sep-21 22:00N 53°30' E 009°56'0 0.0
2017-Sep-21 21:30N 53°30' E 009°56'0 0.0
2017-Sep-21 21:00N 53°30' E 009°56'0 0.0
2017-Sep-21 20:27N 53°30' E 009°56'0 0.0
2017-Sep-21 20:00N 53°30' E 009°56'0 0.0
2017-Sep-21 19:30N 53°30' E 009°56'0 0.0
2017-Sep-21 19:00N 53°30' E 009°56'0 0.0
2017-Sep-21 18:30N 53°30' E 009°56'0 0.0
2017-Sep-21 18:00N 53°30' E 009°56'0 0.0
2017-Sep-21 17:29N 53°30' E 009°56'0 0.0
2017-Sep-21 16:59N 53°30' E 009°56'0 0.0
2017-Sep-21 16:29N 53°30' E 009°56'0 0.0
2017-Sep-21 15:59N 53°30' E 009°56'0 0.0
2017-Sep-21 15:28N 53°30' E 009°56'0 0.0
2017-Sep-21 14:59N 53°30' E 009°56'0 0.0
2017-Sep-21 14:28N 53°30' E 009°56'0 0.0
2017-Sep-21 13:59N 53°30' E 009°56'0 0.0
2017-Sep-21 13:29N 53°30' E 009°56'0 0.0
2017-Sep-21 12:58N 53°30' E 009°56'0 0.0
2017-Sep-21 12:29N 53°30' E 009°56'0 0.0
2017-Sep-21 11:59N 53°30' E 009°56'0 0.0
2017-Sep-21 11:29N 53°30' E 009°56'0 0.0
2017-Sep-21 10:59N 53°30' E 009°56'0 0.0
2017-Sep-21 10:28N 53°30' E 009°56'0 0.0
2017-Sep-21 09:59N 53°30' E 009°56'0 0.0
2017-Sep-21 09:29N 53°30' E 009°56'0 0.0
2017-Sep-21 09:00N 53°30' E 009°56'0 0.0
2017-Sep-21 08:30N 53°30' E 009°56'0 0.0
2017-Sep-21 08:00N 53°30' E 009°56'0 0.0
2017-Sep-21 07:30N 53°30' E 009°56'0 0.0
2017-Sep-21 07:00N 53°30' E 009°56'0 0.0
2017-Sep-21 06:30N 53°30' E 009°56'0 0.0
2017-Sep-21 06:00N 53°30' E 009°56'0 0.0
2017-Sep-21 05:26N 53°30' E 009°56'0 0.0
2017-Sep-21 04:59N 53°30' E 009°56'0 0.0
2017-Sep-21 04:23N 53°30' E 009°56'0 0.0
2017-Sep-21 03:59N 53°30' E 009°56'0 0.0
2017-Sep-21 03:29N 53°30' E 009°56'0 0.0
2017-Sep-21 02:59N 53°30' E 009°56'0 0.0
2017-Sep-21 02:29N 53°30' E 009°56'0 0.0
2017-Sep-21 01:56N 53°30' E 009°56'0 0.0
2017-Sep-21 01:26N 53°30' E 009°56'0 0.0
2017-Sep-21 00:59N 53°30' E 009°56'0 0.0
2017-Sep-21 00:26N 53°30' E 009°56'0 0.0
2017-Sep-20 23:59N 53°30' E 009°56'0 0.0
2017-Sep-20 23:29N 53°30' E 009°56'0 0.0
2017-Sep-20 22:59N 53°30' E 009°56'0 0.0
2017-Sep-20 22:29N 53°30' E 009°56'0 0.0
2017-Sep-20 21:59N 53°30' E 009°56'0 0.0
2017-Sep-20 21:29N 53°30' E 009°56'0 0.0
2017-Sep-20 21:00N 53°30' E 009°56'0 0.2
2017-Sep-20 20:30N 53°30' E 009°56'0 0.3
2017-Sep-20 20:01N 53°30' E 009°56'3 5.4
2017-Sep-20 19:31N 53°33' E 009°54'4 7.3
2017-Sep-20 19:00N 53°33' E 009°48'5 9.5
2017-Sep-20 18:30N 53°34' E 009°40'510.8
2017-Sep-20 18:01N 53°37' E 009°33'510.1
2017-Sep-20 17:30N 53°42' E 009°30'611.8
2017-Sep-20 17:00N 53°47' E 009°23'613.0
2017-Sep-20 16:31N 53°52' E 009°17'510.2
2017-Sep-20 16:00N 53°53' E 009°09'611.1
2017-Sep-20 15:30N 53°51' E 008°60'713.9
2017-Sep-20 15:00N 53°50' E 008°48'1212.2
2017-Sep-20 14:00N 53°58' E 008°32'816.1
2017-Sep-20 13:30N 53°60' E 008°18'612.5
2017-Sep-20 13:00N 53°59' E 008°08'612.4
2017-Sep-20 12:30N 53°58' E 007°57'9014.3
2017-Sep-20 06:13N 53°35' E 005°31'620.2
2017-Sep-20 05:55N 53°33' E 005°21'820.0
2017-Sep-20 05:30N 53°31' E 005°07'1020.3
2017-Sep-20 05:00N 53°28' E 004°51'1019.1
2017-Sep-20 04:30N 53°20' E 004°41'1020.3
2017-Sep-20 04:01N 53°11' E 004°33'1020.0
2017-Sep-20 03:30N 53°03' E 004°24'1019.8
2017-Sep-20 03:00N 52°54' E 004°16'1019.9
2017-Sep-20 02:30N 52°46' E 004°08'1019.9
2017-Sep-20 02:00N 52°37' E 003°59'1019.6
2017-Sep-20 01:30N 52°28' E 003°54'1019.7
2017-Sep-20 01:00N 52°18' E 003°52'1019.0
2017-Sep-20 00:30N 52°09' E 003°55'713.0
2017-Sep-20 00:00N 52°02' E 003°55'511.0
2017-Sep-19 23:30N 51°60' E 004°02'3 5.9
2017-Sep-19 23:00N 51°57' E 004°05'1 2.0
2017-Sep-19 22:26N 51°57' E 004°03'0 0.7
2017-Sep-19 21:59N 51°57' E 004°03'0 0.0
2017-Sep-19 21:29N 51°57' E 004°03'0 0.0
2017-Sep-19 20:59N 51°57' E 004°03'0 0.0
2017-Sep-19 20:29N 51°57' E 004°03'0 0.0
2017-Sep-19 19:59N 51°57' E 004°03'0 0.0
2017-Sep-19 19:26N 51°57' E 004°03'0 0.0
2017-Sep-19 18:59N 51°57' E 004°03'0 0.0
2017-Sep-19 18:29N 51°57' E 004°03'0 0.0
2017-Sep-19 17:59N 51°57' E 004°03'0 0.0
2017-Sep-19 17:28N 51°57' E 004°03'0 0.0
2017-Sep-19 16:58N 51°57' E 004°03'0 0.0
2017-Sep-19 16:28N 51°57' E 004°03'0 0.0
2017-Sep-19 15:58N 51°57' E 004°03'0 0.0
2017-Sep-19 15:28N 51°57' E 004°03'0 0.0
2017-Sep-19 14:58N 51°57' E 004°03'0 0.0
2017-Sep-19 14:28N 51°57' E 004°03'0 0.0
2017-Sep-19 13:58N 51°57' E 004°03'0 0.0
2017-Sep-19 13:28N 51°57' E 004°03'0 0.0
2017-Sep-19 12:58N 51°57' E 004°03'0 0.0
2017-Sep-19 12:30N 51°57' E 004°03'0 0.0
2017-Sep-19 12:00N 51°57' E 004°03'0 0.0
2017-Sep-19 11:30N 51°57' E 004°03'0 0.0
2017-Sep-19 11:00N 51°57' E 004°03'0 0.0
2017-Sep-19 10:30N 51°57' E 004°03'0 0.0
2017-Sep-19 10:00N 51°57' E 004°03'0 0.0
2017-Sep-19 09:30N 51°57' E 004°03'0 0.0
2017-Sep-19 08:57N 51°57' E 004°03'0 0.0
2017-Sep-19 08:30N 51°57' E 004°03'0 0.0
2017-Sep-19 08:00N 51°57' E 004°03'0 0.0
2017-Sep-19 07:30N 51°57' E 004°03'0 0.0
2017-Sep-19 07:00N 51°57' E 004°03'0 0.0
2017-Sep-19 06:27N 51°57' E 004°03'0 0.0
2017-Sep-19 06:00N 51°57' E 004°03'0 0.0
2017-Sep-19 05:30N 51°57' E 004°03'0 0.0
2017-Sep-19 05:00N 51°57' E 004°03'0 0.0
2017-Sep-19 04:30N 51°57' E 004°03'0 0.0
2017-Sep-19 04:00N 51°57' E 004°03'0 0.0
2017-Sep-19 03:30N 51°57' E 004°03'0 0.0
2017-Sep-19 03:00N 51°57' E 004°03'0 0.0
2017-Sep-19 02:30N 51°57' E 004°03'0 0.0
2017-Sep-19 02:00N 51°57' E 004°03'0 0.0
2017-Sep-19 01:30N 51°57' E 004°03'0 0.0
2017-Sep-19 01:00N 51°57' E 004°03'0 0.0
2017-Sep-19 00:30N 51°57' E 004°03'0 0.0
2017-Sep-18 23:57N 51°57' E 004°03'0 0.0
2017-Sep-18 23:30N 51°57' E 004°03'0 0.0
2017-Sep-18 23:00N 51°57' E 004°03'0 0.0
2017-Sep-18 22:30N 51°57' E 004°03'0 0.0
2017-Sep-18 22:00N 51°57' E 004°03'0 0.0
2017-Sep-18 21:30N 51°57' E 004°03'0 0.0
2017-Sep-18 21:00N 51°57' E 004°03'0 0.0
2017-Sep-18 20:30N 51°57' E 004°03'0 0.0
2017-Sep-18 20:00N 51°57' E 004°03'0 0.0
2017-Sep-18 19:27N 51°57' E 004°03'0 0.0
2017-Sep-18 19:00N 51°57' E 004°03'0 0.0
2017-Sep-18 18:30N 51°57' E 004°03'0 0.0
2017-Sep-18 18:00N 51°57' E 004°03'0 0.0
2017-Sep-18 17:30N 51°57' E 004°03'0 0.0
2017-Sep-18 17:00N 51°57' E 004°03'0 0.0
2017-Sep-18 16:30N 51°57' E 004°03'0 0.0
2017-Sep-18 16:00N 51°57' E 004°03'0 0.0
2017-Sep-18 15:27N 51°57' E 004°03'0 0.0
2017-Sep-18 15:00N 51°57' E 004°03'0 0.0
2017-Sep-18 14:29N 51°57' E 004°03'0 0.0
2017-Sep-18 13:59N 51°57' E 004°03'0 0.0
2017-Sep-18 13:29N 51°57' E 004°03'0 0.0
2017-Sep-18 12:59N 51°57' E 004°03'0 0.0
2017-Sep-18 12:29N 51°57' E 004°03'0 0.0
2017-Sep-18 11:59N 51°57' E 004°03'0 0.0
2017-Sep-18 11:29N 51°57' E 004°03'0 0.0
2017-Sep-18 10:59N 51°57' E 004°03'0 0.0
2017-Sep-18 10:29N 51°57' E 004°03'0 0.0
2017-Sep-18 09:59N 51°57' E 004°03'0 0.0
2017-Sep-18 09:30N 51°57' E 004°03'0 0.3
2017-Sep-18 09:00N 51°57' E 004°03'1 2.6
2017-Sep-18 08:30N 51°57' E 004°05'2 4.9
2017-Sep-18 08:00N 51°59' E 004°03'612.7
2017-Sep-18 07:30N 52°00' E 003°53'4 8.6
2017-Sep-18 07:00N 52°02' E 003°47'612.4
2017-Sep-18 06:30N 52°08' E 003°42'1 0.7
2017-Sep-18 05:49N 52°08' E 003°41'0 0.1
2017-Sep-18 05:22N 52°08' E 003°41'0 0.0
2017-Sep-18 03:55N 52°08' E 003°41'0 0.1
2017-Sep-18 03:25N 52°08' E 003°41'0 0.0
2017-Sep-18 02:55N 52°08' E 003°41'0 0.0
2017-Sep-18 02:28N 52°08' E 003°41'0 0.0
2017-Sep-18 01:58N 52°08' E 003°41'0 0.0
2017-Sep-18 01:25N 52°08' E 003°41'0 0.0
2017-Sep-18 00:49N 52°08' E 003°41'0 0.0
2017-Sep-18 00:25N 52°08' E 003°41'0 0.0
2017-Sep-17 23:55N 52°08' E 003°41'0 0.0
2017-Sep-17 23:28N 52°08' E 003°41'0 0.0
2017-Sep-17 22:58N 52°08' E 003°41'0 0.1
2017-Sep-17 21:34N 52°08' E 003°41'0 0.0
2017-Sep-17 21:19N 52°08' E 003°41'0 0.1
2017-Sep-17 20:58N 52°08' E 003°41'0 0.1
2017-Sep-17 20:25N 52°08' E 003°41'0 0.0
2017-Sep-17 19:58N 52°08' E 003°41'0 0.0
2017-Sep-17 19:22N 52°08' E 003°41'0 0.0
2017-Sep-17 18:49N 52°08' E 003°41'0 0.0
2017-Sep-17 18:28N 52°08' E 003°41'0 0.0
2017-Sep-17 17:58N 52°08' E 003°41'0 0.1
2017-Sep-17 17:28N 52°08' E 003°41'0 0.0
2017-Sep-17 16:52N 52°08' E 003°41'0 0.1
2017-Sep-17 16:04N 52°08' E 003°41'0 0.0
2017-Sep-17 15:55N 52°08' E 003°41'0 0.1
2017-Sep-17 15:28N 52°08' E 003°41'0 0.0
2017-Sep-17 14:58N 52°08' E 003°41'0 0.0
2017-Sep-17 14:28N 52°08' E 003°41'0 0.0
2017-Sep-17 13:55N 52°08' E 003°41'0 0.0
2017-Sep-17 13:28N 52°08' E 003°41'0 0.0
2017-Sep-17 12:52N 52°08' E 003°41'0 0.0
2017-Sep-17 12:28N 52°08' E 003°41'0 0.0
2017-Sep-17 11:58N 52°08' E 003°41'0 0.0
2017-Sep-17 11:28N 52°08' E 003°41'0 0.0
2017-Sep-17 10:55N 52°08' E 003°41'0 0.0
2017-Sep-17 10:28N 52°08' E 003°41'0 0.0
2017-Sep-17 09:55N 52°08' E 003°41'0 0.0
2017-Sep-17 09:28N 52°08' E 003°41'0 0.1
2017-Sep-17 08:55N 52°08' E 003°41'0 0.0
2017-Sep-17 08:22N 52°08' E 003°41'0 0.0
2017-Sep-17 07:49N 52°08' E 003°41'0 0.0
2017-Sep-17 07:25N 52°08' E 003°41'0 0.0
2017-Sep-17 06:55N 52°08' E 003°41'0 0.0
2017-Sep-17 05:37N 52°08' E 003°41'0 0.3
2017-Sep-17 05:19N 52°08' E 003°41'0 0.1
2017-Sep-17 04:40N 52°08' E 003°41'0 0.2
2017-Sep-17 04:25N 52°08' E 003°41'0 0.0
2017-Sep-17 03:49N 52°08' E 003°41'0 0.0
2017-Sep-17 03:28N 52°08' E 003°41'0 0.0
2017-Sep-17 02:55N 52°08' E 003°41'0 0.0
2017-Sep-17 02:25N 52°08' E 003°41'0 0.0
2017-Sep-17 01:37N 52°08' E 003°41'0 0.0
2017-Sep-17 01:19N 52°08' E 003°41'0 0.0
2017-Sep-16 23:31N 52°08' E 003°41'0 0.0
2017-Sep-16 23:13N 52°08' E 003°41'0 0.0
2017-Sep-16 22:49N 52°08' E 003°41'0 0.0
2017-Sep-16 22:25N 52°08' E 003°41'0 0.1
2017-Sep-16 21:55N 52°08' E 003°41'0 0.1
2017-Sep-16 21:25N 52°08' E 003°41'0 0.0
2017-Sep-16 20:55N 52°08' E 003°41'0 0.1
2017-Sep-16 19:49N 52°08' E 003°41'0 0.0
2017-Sep-16 19:07N 52°08' E 003°41'0 0.0
2017-Sep-16 15:07N 52°08' E 003°41'0 0.1
2017-Sep-16 14:55N 52°08' E 003°41'0 0.0
2017-Sep-16 14:25N 52°08' E 003°41'0 0.0
2017-Sep-16 13:58N 52°08' E 003°41'0 0.0
2017-Sep-16 13:07N 52°08' E 003°41'0 0.0
2017-Sep-16 12:37N 52°08' E 003°41'0 0.0
2017-Sep-16 11:13N 52°08' E 003°41'0 0.7
2017-Sep-16 11:00N 52°08' E 003°42'4 7.8
2017-Sep-16 10:31N 52°05' E 003°40'815.4
2017-Sep-16 10:00N 51°58' E 003°33'4318.3
2017-Sep-16 07:38N 51°41' E 002°29'218.3
2017-Sep-16 07:31N 51°39' E 002°27'918.1
2017-Sep-16 07:01N 51°32' E 002°17'917.9
2017-Sep-16 06:31N 51°25' E 002°08'917.2
2017-Sep-16 06:01N 51°17' E 002°06'816.4
2017-Sep-16 05:31N 51°11' E 001°56'816.7
2017-Sep-16 05:01N 51°06' E 001°45'816.3
2017-Sep-16 04:31N 51°01' E 001°36'816.4
2017-Sep-16 04:01N 50°54' E 001°29'916.4
2017-Sep-16 03:28N 50°46' E 001°22'816.5
2017-Sep-16 03:01N 50°40' E 001°16'1516.9
2017-Sep-16 02:08N 50°30' E 000°57'317.2
2017-Sep-16 01:58N 50°30' E 000°53'917.4
2017-Sep-16 01:26N 50°27' E 000°39'817.3
2017-Sep-16 00:57N 50°25' E 000°27'817.2
2017-Sep-16 00:31N 50°22' E 000°15'917.1
2017-Sep-16 00:00N 50°20' E 000°02'817.0
2017-Sep-15 23:30N 50°18' W 000°11'816.7
2017-Sep-15 23:00N 50°16' W 000°23'  
Track history (hours):
 
Tides and Currents Weather Stations Pressure Air Temp Water Temp Dewpoint Dewpoint Depression Visibility Wind Speed Wind Dir Waves Ship Positions

Colombo Express

Last reported at 2017-Sep-25 22:27 UTC. Time now 2017-Sep-26 05:54 UTC.
Position N 51°29' E 000°47'.

Length 335.5 m; beam 42.8 m; draft 14.6 m.

Type: Ship. MMSI: 211433000.

Date/timePositionNaut miles runAvg speedWind from/ knotsBaromVisibWave heightAir tempDewpointWater temp
2017-Sep-25 22:27N 51°29' E 000°47'5 9.3
2017-Sep-25 21:53N 51°29' E 000°56'411.5
2017-Sep-25 21:31N 51°30' E 001°02'5 9.6
2017-Sep-25 20:58N 51°33' E 001°10'4 9.8
2017-Sep-25 20:31N 51°35' E 001°16'612.4
2017-Sep-25 20:00N 51°39' E 001°24'714.9
2017-Sep-25 19:31N 51°45' E 001°31'713.8
2017-Sep-25 19:00N 51°51' E 001°36'3 6.8
2017-Sep-25 18:30N 51°52' E 001°41'5 9.3
2017-Sep-25 18:00N 51°50' E 001°48'612.3
2017-Sep-25 17:29N 51°43' E 001°49'611.6
2017-Sep-25 17:00N 51°38' E 001°50'1 1.7
2017-Sep-25 16:30N 51°37' E 001°49'1 1.7
2017-Sep-25 16:00N 51°36' E 001°49'1 1.3
2017-Sep-25 15:30N 51°35' E 001°50'0 0.7
2017-Sep-25 15:00N 51°35' E 001°50'0 0.4
2017-Sep-25 14:30N 51°35' E 001°50'0 0.5
2017-Sep-25 14:00N 51°35' E 001°50'1 2.9
2017-Sep-25 13:30N 51°34' E 001°50'4 7.2
2017-Sep-25 13:00N 51°31' E 001°53'4 7.8
2017-Sep-25 12:30N 51°28' E 001°57'5 9.5
2017-Sep-25 12:00N 51°25' E 002°03'4 8.8
2017-Sep-25 11:30N 51°23' E 002°09'611.1
2017-Sep-25 11:00N 51°21' E 002°17'5 9.2
2017-Sep-25 10:30N 51°22' E 002°24'4 9.0
2017-Sep-25 10:00N 51°23' E 002°31'4 8.6
2017-Sep-25 09:30N 51°23' E 002°38'5 9.2
2017-Sep-25 09:00N 51°24' E 002°45'714.8
2017-Sep-25 08:31N 51°25' E 002°57'917.2
2017-Sep-25 08:00N 51°24' E 003°11'918.6
2017-Sep-25 07:31N 51°25' E 003°26'714.1
2017-Sep-25 07:00N 51°26' E 003°37'611.6
2017-Sep-25 06:30N 51°22' E 003°44'713.7
2017-Sep-25 06:00N 51°22' E 003°55'611.1
2017-Sep-25 05:30N 51°26' E 004°02'510.8
2017-Sep-25 05:00N 51°22' E 004°08'4 7.1
2017-Sep-25 04:30N 51°21' E 004°14'1 2.2
2017-Sep-25 04:01N 51°21' E 004°16'0 0.0
2017-Sep-25 03:30N 51°21' E 004°16'0 0.0
2017-Sep-25 03:01N 51°21' E 004°16'0 0.0
2017-Sep-25 02:31N 51°21' E 004°16'0 0.0
2017-Sep-25 02:00N 51°21' E 004°16'0 0.0
2017-Sep-25 01:31N 51°21' E 004°16'0 0.0
2017-Sep-25 01:01N 51°21' E 004°16'0 0.0
2017-Sep-25 00:30N 51°21' E 004°16'0 0.0
2017-Sep-25 00:01N 51°21' E 004°16'0 0.0
2017-Sep-24 23:31N 51°21' E 004°16'0 0.0
2017-Sep-24 23:00N 51°21' E 004°16'0 0.0
2017-Sep-24 22:31N 51°21' E 004°16'0 0.0
2017-Sep-24 22:00N 51°21' E 004°16'0 0.0
2017-Sep-24 21:31N 51°21' E 004°16'0 0.0
2017-Sep-24 21:01N 51°21' E 004°16'0 0.0
2017-Sep-24 20:30N 51°21' E 004°16'0 0.0
2017-Sep-24 20:00N 51°21' E 004°16'0 0.0
2017-Sep-24 19:30N 51°21' E 004°16'0 0.0
2017-Sep-24 19:01N 51°21' E 004°16'0 0.0
2017-Sep-24 18:29N 51°21' E 004°16'0 0.0
2017-Sep-24 17:59N 51°21' E 004°16'0 0.0
2017-Sep-24 17:29N 51°21' E 004°16'0 0.0
2017-Sep-24 17:01N 51°21' E 004°16'0 0.0
2017-Sep-24 16:31N 51°21' E 004°16'0 0.0
2017-Sep-24 16:00N 51°21' E 004°16'0 0.0
2017-Sep-24 15:28N 51°21' E 004°16'0 0.0
2017-Sep-24 14:59N 51°21' E 004°16'0 0.0
2017-Sep-24 14:28N 51°21' E 004°16'0 0.0
2017-Sep-24 14:01N 51°21' E 004°16'0 0.0
2017-Sep-24 13:26N 51°21' E 004°16'0 0.0
2017-Sep-24 12:58N 51°21' E 004°16'0 0.0
2017-Sep-24 12:30N 51°21' E 004°16'0 0.0
2017-Sep-24 12:01N 51°21' E 004°16'0 0.0
2017-Sep-24 11:31N 51°21' E 004°16'0 0.0
2017-Sep-24 11:00N 51°21' E 004°16'0 0.0
2017-Sep-24 10:30N 51°21' E 004°16'0 0.0
2017-Sep-24 10:00N 51°21' E 004°16'0 0.0
2017-Sep-24 09:31N 51°21' E 004°16'0 0.0
2017-Sep-24 09:00N 51°21' E 004°16'0 0.0
2017-Sep-24 08:31N 51°21' E 004°16'0 0.0
2017-Sep-24 08:00N 51°21' E 004°16'0 0.0
2017-Sep-24 07:31N 51°21' E 004°16'0 0.0
2017-Sep-24 07:01N 51°21' E 004°16'0 0.0
2017-Sep-24 06:25N 51°21' E 004°16'0 0.0
2017-Sep-24 06:00N 51°21' E 004°16'0 0.0
2017-Sep-24 05:31N 51°21' E 004°16'0 0.0
2017-Sep-24 05:00N 51°21' E 004°16'0 0.0
2017-Sep-24 04:30N 51°21' E 004°16'0 0.0
2017-Sep-24 04:01N 51°21' E 004°16'0 0.0
2017-Sep-24 03:31N 51°21' E 004°16'0 0.0
2017-Sep-24 03:00N 51°21' E 004°16'0 0.0
2017-Sep-24 02:31N 51°21' E 004°16'0 0.0
2017-Sep-24 02:00N 51°21' E 004°16'0 0.0
2017-Sep-24 01:28N 51°21' E 004°16'0 0.0
2017-Sep-24 01:01N 51°21' E 004°16'0 0.0
2017-Sep-24 00:30N 51°21' E 004°16'0 0.0
2017-Sep-24 00:01N 51°21' E 004°16'0 0.0
2017-Sep-23 23:31N 51°21' E 004°16'0 0.0
2017-Sep-23 23:00N 51°21' E 004°16'0 0.0
2017-Sep-23 22:30N 51°21' E 004°16'0 0.0
2017-Sep-23 22:01N 51°21' E 004°16'0 0.0
2017-Sep-23 21:25N 51°21' E 004°16'0 0.0
2017-Sep-23 21:00N 51°21' E 004°16'0 0.0
2017-Sep-23 20:30N 51°21' E 004°16'0 0.0
2017-Sep-23 20:00N 51°21' E 004°16'245 5.8
2017-Sep-22 02:00N 53°30' E 009°56'0 0.0
2017-Sep-22 01:30N 53°30' E 009°56'0 0.0
2017-Sep-22 01:00N 53°30' E 009°56'0 0.0
2017-Sep-22 00:30N 53°30' E 009°56'0 0.0
2017-Sep-22 00:00N 53°30' E 009°56'0 0.0
2017-Sep-21 23:30N 53°30' E 009°56'0 0.0
2017-Sep-21 23:00N 53°30' E 009°56'0 0.0
2017-Sep-21 22:30N 53°30' E 009°56'0 0.0
2017-Sep-21 22:00N 53°30' E 009°56'0 0.0
2017-Sep-21 21:30N 53°30' E 009°56'0 0.0
2017-Sep-21 21:00N 53°30' E 009°56'0 0.0
2017-Sep-21 20:27N 53°30' E 009°56'0 0.0
2017-Sep-21 20:00N 53°30' E 009°56'0 0.0
2017-Sep-21 19:30N 53°30' E 009°56'0 0.0
2017-Sep-21 19:00N 53°30' E 009°56'0 0.0
2017-Sep-21 18:30N 53°30' E 009°56'0 0.0
2017-Sep-21 18:00N 53°30' E 009°56'0 0.0
2017-Sep-21 17:29N 53°30' E 009°56'0 0.0
2017-Sep-21 16:59N 53°30' E 009°56'0 0.0
2017-Sep-21 16:29N 53°30' E 009°56'0 0.0
2017-Sep-21 15:59N 53°30' E 009°56'0 0.0
2017-Sep-21 15:28N 53°30' E 009°56'0 0.0
2017-Sep-21 14:59N 53°30' E 009°56'0 0.0
2017-Sep-21 14:28N 53°30' E 009°56'0 0.0
2017-Sep-21 13:59N 53°30' E 009°56'0 0.0
2017-Sep-21 13:29N 53°30' E 009°56'0 0.0
2017-Sep-21 12:58N 53°30' E 009°56'0 0.0
2017-Sep-21 12:29N 53°30' E 009°56'0 0.0
2017-Sep-21 11:59N 53°30' E 009°56'0 0.0
2017-Sep-21 11:29N 53°30' E 009°56'0 0.0
2017-Sep-21 10:59N 53°30' E 009°56'0 0.0
2017-Sep-21 10:28N 53°30' E 009°56'0 0.0
2017-Sep-21 09:59N 53°30' E 009°56'0 0.0
2017-Sep-21 09:29N 53°30' E 009°56'0 0.0
2017-Sep-21 09:00N 53°30' E 009°56'0 0.0
2017-Sep-21 08:30N 53°30' E 009°56'0 0.0
2017-Sep-21 08:00N 53°30' E 009°56'0 0.0
2017-Sep-21 07:30N 53°30' E 009°56'0 0.0
2017-Sep-21 07:00N 53°30' E 009°56'0 0.0
2017-Sep-21 06:30N 53°30' E 009°56'0 0.0
2017-Sep-21 06:00N 53°30' E 009°56'0 0.0
2017-Sep-21 05:26N 53°30' E 009°56'0 0.0
2017-Sep-21 04:59N 53°30' E 009°56'0 0.0
2017-Sep-21 04:23N 53°30' E 009°56'0 0.0
2017-Sep-21 03:59N 53°30' E 009°56'0 0.0
2017-Sep-21 03:29N 53°30' E 009°56'0 0.0
2017-Sep-21 02:59N 53°30' E 009°56'0 0.0
2017-Sep-21 02:29N 53°30' E 009°56'0 0.0
2017-Sep-21 01:56N 53°30' E 009°56'0 0.0
2017-Sep-21 01:26N 53°30' E 009°56'0 0.0
2017-Sep-21 00:59N 53°30' E 009°56'0 0.0
2017-Sep-21 00:26N 53°30' E 009°56'0 0.0
2017-Sep-20 23:59N 53°30' E 009°56'0 0.0
2017-Sep-20 23:29N 53°30' E 009°56'0 0.0
2017-Sep-20 22:59N 53°30' E 009°56'0 0.0
2017-Sep-20 22:29N 53°30' E 009°56'0 0.0
2017-Sep-20 21:59N 53°30' E 009°56'0 0.0
2017-Sep-20 21:29N 53°30' E 009°56'0 0.0
2017-Sep-20 21:00N 53°30' E 009°56'0 0.2
2017-Sep-20 20:30N 53°30' E 009°56'0 0.3
2017-Sep-20 20:01N 53°30' E 009°56'3 5.4
2017-Sep-20 19:31N 53°33' E 009°54'4 7.3
2017-Sep-20 19:00N 53°33' E 009°48'5 9.5
2017-Sep-20 18:30N 53°34' E 009°40'510.8
2017-Sep-20 18:01N 53°37' E 009°33'510.1
2017-Sep-20 17:30N 53°42' E 009°30'611.8
2017-Sep-20 17:00N 53°47' E 009°23'613.0
2017-Sep-20 16:31N 53°52' E 009°17'510.2
2017-Sep-20 16:00N 53°53' E 009°09'611.1
2017-Sep-20 15:30N 53°51' E 008°60'713.9
2017-Sep-20 15:00N 53°50' E 008°48'1212.2
2017-Sep-20 14:00N 53°58' E 008°32'816.1
2017-Sep-20 13:30N 53°60' E 008°18'612.5
2017-Sep-20 13:00N 53°59' E 008°08'612.4
2017-Sep-20 12:30N 53°58' E 007°57'9014.3
2017-Sep-20 06:13N 53°35' E 005°31'620.2
2017-Sep-20 05:55N 53°33' E 005°21'820.0
2017-Sep-20 05:30N 53°31' E 005°07'1020.3
2017-Sep-20 05:00N 53°28' E 004°51'1019.1
2017-Sep-20 04:30N 53°20' E 004°41'1020.3
2017-Sep-20 04:01N 53°11' E 004°33'1020.0
2017-Sep-20 03:30N 53°03' E 004°24'1019.8
2017-Sep-20 03:00N 52°54' E 004°16'1019.9
2017-Sep-20 02:30N 52°46' E 004°08'1019.9
2017-Sep-20 02:00N 52°37' E 003°59'1019.6
2017-Sep-20 01:30N 52°28' E 003°54'1019.7
2017-Sep-20 01:00N 52°18' E 003°52'1019.0
2017-Sep-20 00:30N 52°09' E 003°55'713.0
2017-Sep-20 00:00N 52°02' E 003°55'511.0
2017-Sep-19 23:30N 51°60' E 004°02'3 5.9
2017-Sep-19 23:00N 51°57' E 004°05'1 2.0
2017-Sep-19 22:26N 51°57' E 004°03'0 0.7
2017-Sep-19 21:59N 51°57' E 004°03'0 0.0
2017-Sep-19 21:29N 51°57' E 004°03'0 0.0
2017-Sep-19 20:59N 51°57' E 004°03'0 0.0
2017-Sep-19 20:29N 51°57' E 004°03'0 0.0
2017-Sep-19 19:59N 51°57' E 004°03'0 0.0
2017-Sep-19 19:26N 51°57' E 004°03'0 0.0
2017-Sep-19 18:59N 51°57' E 004°03'0 0.0
2017-Sep-19 18:29N 51°57' E 004°03'0 0.0
2017-Sep-19 17:59N 51°57' E 004°03'0 0.0
2017-Sep-19 17:28N 51°57' E 004°03'0 0.0
2017-Sep-19 16:58N 51°57' E 004°03'0 0.0
2017-Sep-19 16:28N 51°57' E 004°03'0 0.0
2017-Sep-19 15:58N 51°57' E 004°03'0 0.0
2017-Sep-19 15:28N 51°57' E 004°03'0 0.0
2017-Sep-19 14:58N 51°57' E 004°03'0 0.0
2017-Sep-19 14:28N 51°57' E 004°03'0 0.0
2017-Sep-19 13:58N 51°57' E 004°03'0 0.0
2017-Sep-19 13:28N 51°57' E 004°03'0 0.0
2017-Sep-19 12:58N 51°57' E 004°03'0 0.0
2017-Sep-19 12:30N 51°57' E 004°03'0 0.0
2017-Sep-19 12:00N 51°57' E 004°03'0 0.0
2017-Sep-19 11:30N 51°57' E 004°03'0 0.0
2017-Sep-19 11:00N 51°57' E 004°03'0 0.0
2017-Sep-19 10:30N 51°57' E 004°03'0 0.0
2017-Sep-19 10:00N 51°57' E 004°03'0 0.0
2017-Sep-19 09:30N 51°57' E 004°03'0 0.0
2017-Sep-19 08:57N 51°57' E 004°03'0 0.0
2017-Sep-19 08:30N 51°57' E 004°03'0 0.0
2017-Sep-19 08:00N 51°57' E 004°03'0 0.0
2017-Sep-19 07:30N 51°57' E 004°03'0 0.0
2017-Sep-19 07:00N 51°57' E 004°03'0 0.0
2017-Sep-19 06:27N 51°57' E 004°03'0 0.0
2017-Sep-19 06:00N 51°57' E 004°03'0 0.0
2017-Sep-19 05:30N 51°57' E 004°03'0 0.0
2017-Sep-19 05:00N 51°57' E 004°03'0 0.0
2017-Sep-19 04:30N 51°57' E 004°03'0 0.0
2017-Sep-19 04:00N 51°57' E 004°03'0 0.0
2017-Sep-19 03:30N 51°57' E 004°03'0 0.0
2017-Sep-19 03:00N 51°57' E 004°03'0 0.0
2017-Sep-19 02:30N 51°57' E 004°03'0 0.0
2017-Sep-19 02:00N 51°57' E 004°03'0 0.0
2017-Sep-19 01:30N 51°57' E 004°03'0 0.0
2017-Sep-19 01:00N 51°57' E 004°03'0 0.0
2017-Sep-19 00:30N 51°57' E 004°03'0 0.0
2017-Sep-18 23:57N 51°57' E 004°03'0 0.0
2017-Sep-18 23:30N 51°57' E 004°03'0 0.0
2017-Sep-18 23:00N 51°57' E 004°03'0 0.0
2017-Sep-18 22:30N 51°57' E 004°03'0 0.0
2017-Sep-18 22:00N 51°57' E 004°03'0 0.0
2017-Sep-18 21:30N 51°57' E 004°03'0 0.0
2017-Sep-18 21:00N 51°57' E 004°03'0 0.0
2017-Sep-18 20:30N 51°57' E 004°03'0 0.0
2017-Sep-18 20:00N 51°57' E 004°03'0 0.0
2017-Sep-18 19:27N 51°57' E 004°03'0 0.0
2017-Sep-18 19:00N 51°57' E 004°03'0 0.0
2017-Sep-18 18:30N 51°57' E 004°03'0 0.0
2017-Sep-18 18:00N 51°57' E 004°03'0 0.0
2017-Sep-18 17:30N 51°57' E 004°03'0 0.0
2017-Sep-18 17:00N 51°57' E 004°03'0 0.0
2017-Sep-18 16:30N 51°57' E 004°03'0 0.0
2017-Sep-18 16:00N 51°57' E 004°03'0 0.0
2017-Sep-18 15:27N 51°57' E 004°03'0 0.0
2017-Sep-18 15:00N 51°57' E 004°03'0 0.0
2017-Sep-18 14:29N 51°57' E 004°03'0 0.0
2017-Sep-18 13:59N 51°57' E 004°03'0 0.0
2017-Sep-18 13:29N 51°57' E 004°03'0 0.0
2017-Sep-18 12:59N 51°57' E 004°03'0 0.0
2017-Sep-18 12:29N 51°57' E 004°03'0 0.0
2017-Sep-18 11:59N 51°57' E 004°03'0 0.0
2017-Sep-18 11:29N 51°57' E 004°03'0 0.0
2017-Sep-18 10:59N 51°57' E 004°03'0 0.0
2017-Sep-18 10:29N 51°57' E 004°03'0 0.0
2017-Sep-18 09:59N 51°57' E 004°03'0 0.0
2017-Sep-18 09:30N 51°57' E 004°03'0 0.3
2017-Sep-18 09:00N 51°57' E 004°03'1 2.6
2017-Sep-18 08:30N 51°57' E 004°05'2 4.9
2017-Sep-18 08:00N 51°59' E 004°03'612.7
2017-Sep-18 07:30N 52°00' E 003°53'4 8.6
2017-Sep-18 07:00N 52°02' E 003°47'612.4
2017-Sep-18 06:30N 52°08' E 003°42'1 0.7
2017-Sep-18 05:49N 52°08' E 003°41'0 0.1
2017-Sep-18 05:22N 52°08' E 003°41'0 0.0
2017-Sep-18 03:55N 52°08' E 003°41'0 0.1
2017-Sep-18 03:25N 52°08' E 003°41'0 0.0
2017-Sep-18 02:55N 52°08' E 003°41'0 0.0
2017-Sep-18 02:28N 52°08' E 003°41'0 0.0
2017-Sep-18 01:58N 52°08' E 003°41'0 0.0
2017-Sep-18 01:25N 52°08' E 003°41'0 0.0
2017-Sep-18 00:49N 52°08' E 003°41'0 0.0
2017-Sep-18 00:25N 52°08' E 003°41'0 0.0
2017-Sep-17 23:55N 52°08' E 003°41'0 0.0
2017-Sep-17 23:28N 52°08' E 003°41'0 0.0
2017-Sep-17 22:58N 52°08' E 003°41'0 0.1
2017-Sep-17 21:34N 52°08' E 003°41'0 0.0
2017-Sep-17 21:19N 52°08' E 003°41'0 0.1
2017-Sep-17 20:58N 52°08' E 003°41'0 0.1
2017-Sep-17 20:25N 52°08' E 003°41'0 0.0
2017-Sep-17 19:58N 52°08' E 003°41'0 0.0
2017-Sep-17 19:22N 52°08' E 003°41'0 0.0
2017-Sep-17 18:49N 52°08' E 003°41'0 0.0
2017-Sep-17 18:28N 52°08' E 003°41'0 0.0
2017-Sep-17 17:58N 52°08' E 003°41'0 0.1
2017-Sep-17 17:28N 52°08' E 003°41'0 0.0
2017-Sep-17 16:52N 52°08' E 003°41'0 0.1
2017-Sep-17 16:04N 52°08' E 003°41'0 0.0
2017-Sep-17 15:55N 52°08' E 003°41'0 0.1
2017-Sep-17 15:28N 52°08' E 003°41'0 0.0
2017-Sep-17 14:58N 52°08' E 003°41'0 0.0
2017-Sep-17 14:28N 52°08' E 003°41'0 0.0
2017-Sep-17 13:55N 52°08' E 003°41'0 0.0
2017-Sep-17 13:28N 52°08' E 003°41'0 0.0
2017-Sep-17 12:52N 52°08' E 003°41'0 0.0
2017-Sep-17 12:28N 52°08' E 003°41'0 0.0
2017-Sep-17 11:58N 52°08' E 003°41'0 0.0
2017-Sep-17 11:28N 52°08' E 003°41'0 0.0
2017-Sep-17 10:55N 52°08' E 003°41'0 0.0
2017-Sep-17 10:28N 52°08' E 003°41'0 0.0
2017-Sep-17 09:55N 52°08' E 003°41'0 0.0
2017-Sep-17 09:28N 52°08' E 003°41'0 0.1
2017-Sep-17 08:55N 52°08' E 003°41'0 0.0
2017-Sep-17 08:22N 52°08' E 003°41'0 0.0
2017-Sep-17 07:49N 52°08' E 003°41'0 0.0
2017-Sep-17 07:25N 52°08' E 003°41'0 0.0
2017-Sep-17 06:55N 52°08' E 003°41'0 0.0
2017-Sep-17 05:37N 52°08' E 003°41'0 0.3
2017-Sep-17 05:19N 52°08' E 003°41'0 0.1
2017-Sep-17 04:40N 52°08' E 003°41'0 0.2
2017-Sep-17 04:25N 52°08' E 003°41'0 0.0
2017-Sep-17 03:49N 52°08' E 003°41'0 0.0
2017-Sep-17 03:28N 52°08' E 003°41'0 0.0
2017-Sep-17 02:55N 52°08' E 003°41'0 0.0
2017-Sep-17 02:25N 52°08' E 003°41'0 0.0
2017-Sep-17 01:37N 52°08' E 003°41'0 0.0
2017-Sep-17 01:19N 52°08' E 003°41'0 0.0
2017-Sep-16 23:31N 52°08' E 003°41'0 0.0
2017-Sep-16 23:13N 52°08' E 003°41'0 0.0
2017-Sep-16 22:49N 52°08' E 003°41'0 0.0
2017-Sep-16 22:25N 52°08' E 003°41'0 0.1
2017-Sep-16 21:55N 52°08' E 003°41'0 0.1
2017-Sep-16 21:25N 52°08' E 003°41'0 0.0
2017-Sep-16 20:55N 52°08' E 003°41'0 0.1
2017-Sep-16 19:49N 52°08' E 003°41'0 0.0
2017-Sep-16 19:07N 52°08' E 003°41'0 0.0
2017-Sep-16 15:07N 52°08' E 003°41'0 0.1
2017-Sep-16 14:55N 52°08' E 003°41'0 0.0
2017-Sep-16 14:25N 52°08' E 003°41'0 0.0
2017-Sep-16 13:58N 52°08' E 003°41'0 0.0
2017-Sep-16 13:07N 52°08' E 003°41'0 0.0
2017-Sep-16 12:37N 52°08' E 003°41'0 0.0
2017-Sep-16 11:13N 52°08' E 003°41'0 0.7
2017-Sep-16 11:00N 52°08' E 003°42'4 7.8
2017-Sep-16 10:31N 52°05' E 003°40'815.4
2017-Sep-16 10:00N 51°58' E 003°33'4318.3
2017-Sep-16 07:38N 51°41' E 002°29'218.3
2017-Sep-16 07:31N 51°39' E 002°27'918.1
2017-Sep-16 07:01N 51°32' E 002°17'917.9
2017-Sep-16 06:31N 51°25' E 002°08'917.2
2017-Sep-16 06:01N 51°17' E 002°06'816.4
2017-Sep-16 05:31N 51°11' E 001°56'816.7
2017-Sep-16 05:01N 51°06' E 001°45'816.3
2017-Sep-16 04:31N 51°01' E 001°36'816.4
2017-Sep-16 04:01N 50°54' E 001°29'916.4
2017-Sep-16 03:28N 50°46' E 001°22'816.5
2017-Sep-16 03:01N 50°40' E 001°16'1516.9
2017-Sep-16 02:08N 50°30' E 000°57'317.2
2017-Sep-16 01:58N 50°30' E 000°53'917.4
2017-Sep-16 01:26N 50°27' E 000°39'817.3
2017-Sep-16 00:57N 50°25' E 000°27'817.2
2017-Sep-16 00:31N 50°22' E 000°15'917.1
2017-Sep-16 00:00N 50°20' E 000°02'817.0
2017-Sep-15 23:30N 50°18' W 000°11'816.7
2017-Sep-15 23:00N 50°16' W 000°23'  

Dump ship's entire track history